Time;durP1;ratioP1;P1;durP2;ratioP2;P2;SDS_P1;SDS_P2;PMS_P1;PMS_P2;Temp;Humidity;BMP_temperature;BMP_pressure;BME280_temperature;BME280_humidity;BME280_pressure;Samples;Min_cycle;Max_cycle;Signal;HPM_P1;HPM_P2
2023/08/29 00:14:06;;;;;;;15.55;11.40;;;;;;;30.25;90.03;99505.09;31395241;28;20060;-87
2023/08/29 00:29:08;;;;;;;15.05;10.43;;;;;;;29.93;90.90;99508.63;31403692;28;20060;-84
2023/08/29 00:44:10;;;;;;;15.20;11.20;;;;;;;29.86;91.00;99504.56;31422679;28;20083;-83
2023/08/29 00:59:15;;;;;;;14.90;10.65;;;;;;;29.42;94.39;99495.78;31390870;28;20469;-84
2023/08/29 01:14:36;;;;;;;18.33;10.93;;;;;;;29.28;96.58;99498.03;31388487;28;20049;-84
2023/08/29 01:29:39;;;;;;;15.38;11.13;;;;;;;29.13;96.68;99498.06;31400110;28;20049;-84
2023/08/29 01:44:41;;;;;;;19.17;11.68;;;;;;;29.32;95.43;99498.38;31400314;28;20052;-84
2023/08/29 01:59:44;;;;;;;18.57;12.43;;;;;;;29.40;97.00;99510.31;31393193;28;20037;-83
2023/08/29 02:14:47;;;;;;;16.95;11.25;;;;;;;29.07;99.30;99494.72;31434678;28;20297;-84
2023/08/29 02:29:50;;;;;;;18.77;11.63;;;;;;;28.96;100.00;99495.84;31388775;28;20537;-84
2023/08/29 02:44:54;;;;;;;16.10;11.88;;;;;;;28.79;100.00;99515.97;31382784;28;20565;-84
2023/08/29 02:59:57;;;;;;;20.60;12.73;;;;;;;28.84;100.00;99523.41;31382163;28;20122;-83
2023/08/29 03:15:03;;;;;;;22.50;13.85;;;;;;;28.80;100.00;99525.09;31401913;28;20041;-84
2023/08/29 03:30:05;;;;;;;22.13;13.95;;;;;;;28.97;100.00;99513.38;31378661;28;20958;-84
2023/08/29 03:45:08;;;;;;;20.98;13.43;;;;;;;29.01;100.00;99485.78;31394184;28;20045;-85
2023/08/29 04:00:11;;;;;;;17.63;13.00;;;;;;;29.27;100.00;99490.22;31392431;28;20056;-84
2023/08/29 04:15:13;;;;;;;23.85;14.90;;;;;;;29.69;100.00;99529.63;31405080;28;20044;-83
2023/08/29 04:30:15;;;;;;;;;;;;;;;30.05;100.00;99568.47;31402621;28;20048;-84
2023/08/29 04:45:19;;;;;;;20.70;13.15;;;;;;;30.29;100.00;99564.97;31412581;28;19974;-82
2023/08/29 05:00:22;;;;;;;26.60;15.30;;;;;;;30.84;98.39;99590.03;31412444;28;20579;-81
2023/08/29 05:15:25;;;;;;;29.95;15.48;;;;;;;31.35;95.07;99616.75;31391004;28;20559;-83
2023/08/29 05:30:27;;;;;;;27.05;15.32;;;;;;;31.83;92.42;99631.25;31387913;28;20048;-82
2023/08/29 05:45:29;;;;;;;18.67;12.35;;;;;;;32.81;81.26;99653.81;31393348;28;20056;-85
2023/08/29 06:00:32;;;;;;;17.55;11.63;;;;;;;31.69;78.67;99669.34;31379407;28;20080;-80
2023/08/29 06:16:13;;;;;;;;;;;;;;;;;;;;;
2023/08/29 06:47:14;;;;;;;21.30;13.02;;;;;;;34.36;65.00;99696.34;31365686;28;20083;-81
2023/08/29 07:02:19;;;;;;;34.20;14.43;;;;;;;35.02;62.60;99708.81;31388217;28;20496;-80
2023/08/29 07:17:21;;;;;;;27.88;15.65;;;;;;;35.47;59.91;99703.44;31370824;28;20085;-83
2023/08/29 07:32:30;;;;;;;38.40;23.20;;;;;;;36.61;55.88;99710.91;31388195;28;20051;-81
2023/08/29 07:47:32;;;;;;;38.95;17.77;;;;;;;37.10;53.99;99706.19;31412745;28;20059;-83
2023/08/29 08:02:38;;;;;;;44.65;23.40;;;;;;;37.97;51.91;99713.50;31413764;28;20049;-85
2023/08/29 08:33:01;;;;;;;20.55;10.48;;;;;;;38.40;48.84;99703.25;31399775;28;20080;-88
2023/08/29 09:04:01;;;;;;;9.30;6.40;;;;;;;39.07;44.44;99700.50;31373980;28;20470;-83
2023/08/29 09:19:06;;;;;;;15.40;7.40;;;;;;;39.36;43.83;99694.19;31365255;28;20048;-75
2023/08/29 09:34:37;;;;;;;7.53;6.25;;;;;;;39.90;41.41;99704.81;31373219;28;20099;-81
2023/08/29 09:49:59;;;;;;;8.68;5.70;;;;;;;40.30;40.94;99696.75;31358562;28;20058;-79
2023/08/29 10:05:09;;;;;;;7.97;4.97;;;;;;;39.57;40.73;99693.88;31342072;28;20140;-79
2023/08/29 10:20:12;;;;;;;6.97;4.90;;;;;;;40.84;40.43;99692.94;31341388;28;20418;-81
2023/08/29 10:35:19;;;;;;;8.00;5.45;;;;;;;39.85;39.00;99686.06;31333237;28;20594;-75
2023/08/29 10:50:21;;;;;;;8.13;6.47;;;;;;;41.15;39.10;99686.47;31368616;28;20137;-76
2023/08/29 11:05:27;;;;;;;;;;;;;;;40.73;37.71;99682.44;31360854;28;20102;-76
2023/08/29 11:20:32;;;;;;;12.02;7.85;;;;;;;41.28;37.38;99693.47;31386573;28;19925;-76
2023/08/29 11:35:34;;;;;;;8.80;5.43;;;;;;;40.87;36.84;99686.69;31393485;28;20052;-76
2023/08/29 11:50:39;;;;;;;7.80;5.22;;;;;;;39.45;38.30;99674.13;31392247;28;20095;-81
2023/08/29 12:05:41;;;;;;;10.82;6.20;;;;;;;38.29;40.41;99677.78;31398174;28;20045;-84
2023/08/29 12:20:43;;;;;;;11.27;5.90;;;;;;;37.95;40.48;99680.13;31414605;28;20056;-77
2023/08/29 12:35:45;;;;;;;9.95;5.43;;;;;;;37.34;40.87;99673.72;31399694;28;20080;-77
2023/08/29 12:50:47;;;;;;;6.75;5.55;;;;;;;37.02;42.34;99677.41;31390250;28;20059;-77
2023/08/29 13:05:55;;;;;;;7.18;5.70;;;;;;;36.72;42.11;99674.19;31373050;28;20052;-79
2023/08/29 13:21:00;;;;;;;11.48;6.43;;;;;;;36.55;42.51;99671.69;31384305;28;20087;-75
2023/08/29 13:36:02;;;;;;;9.10;6.18;;;;;;;36.39;43.46;99682.69;31372447;28;20140;-77
2023/08/29 13:51:04;;;;;;;7.35;5.80;;;;;;;36.12;43.63;99680.25;31380104;28;20187;-76
2023/08/29 14:06:06;;;;;;;13.52;5.82;;;;;;;36.08;43.37;99677.16;31394428;28;20072;-77
2023/08/29 14:21:17;;;;;;;11.65;8.18;;;;;;;35.86;44.24;99689.84;31396464;28;20094;-78
2023/08/29 14:36:25;;;;;;;7.18;6.25;;;;;;;36.19;44.18;99684.94;31388498;28;20375;-79
2023/08/29 14:51:27;;;;;;;11.27;6.95;;;;;;;36.19;44.07;99682.09;31407011;28;20067;-78
2023/08/29 15:06:29;;;;;;;9.75;6.70;;;;;;;35.49;45.42;99687.38;31364240;28;20135;-82
2023/08/29 15:21:32;;;;;;;10.43;7.03;;;;;;;35.46;45.42;99694.22;31394966;28;20049;-83
2023/08/29 15:36:36;;;;;;;20.05;11.88;;;;;;;35.24;45.97;99689.84;31371536;28;20048;-79
2023/08/29 15:51:47;;;;;;;16.77;7.90;;;;;;;35.08;46.94;99700.03;31375878;28;20088;-77
2023/08/29 16:06:50;;;;;;;11.75;6.63;;;;;;;34.74;47.47;99706.78;31400070;28;20074;-82
2023/08/29 16:21:53;;;;;;;18.60;12.85;;;;;;;34.36;48.55;99716.06;31391126;28;20052;-84
2023/08/29 16:36:55;;;;;;;26.80;14.38;;;;;;;34.01;48.70;99721.97;31422469;28;20045;-74
2023/08/29 16:51:57;;;;;;;8.10;5.80;;;;;;;33.67;49.47;99739.81;31407370;28;20597;-77
2023/08/29 17:07:00;;;;;;;10.55;6.28;;;;;;;33.39;50.16;99752.47;31397714;28;20162;-77
2023/08/29 17:22:02;;;;;;;7.78;5.72;;;;;;;33.16;50.38;99768.91;31379973;28;20048;-79
2023/08/29 17:37:07;;;;;;;11.57;6.25;;;;;;;33.03;50.78;99783.38;31389101;28;20052;-79
2023/08/29 17:52:10;;;;;;;10.88;6.72;;;;;;;32.78;50.81;99798.31;31393648;28;20432;-80
2023/08/29 18:07:14;;;;;;;10.77;7.07;;;;;;;32.45;51.15;99806.13;31372293;28;20075;-77
2023/08/29 18:22:16;;;;;;;11.13;6.35;;;;;;;32.28;51.83;99802.59;31371100;28;20363;-78
2023/08/29 18:37:18;;;;;;;12.10;6.53;;;;;;;32.08;52.12;99796.78;31400828;28;20076;-79
2023/08/29 18:52:20;;;;;;;9.30;5.82;;;;;;;31.66;52.33;99818.41;31418561;28;20494;-80
2023/08/29 19:07:28;;;;;;;6.28;4.72;;;;;;;30.85;51.08;99807.28;31399422;28;20075;-85
2023/08/29 19:22:34;;;;;;;12.60;6.22;;;;;;;30.91;51.69;99820.34;31422807;28;20132;-82
2023/08/29 19:37:37;;;;;;;11.70;6.40;;;;;;;30.59;51.69;99830.16;31451683;28;20385;-83
2023/08/29 19:52:40;;;;;;;11.52;7.13;;;;;;;30.44;52.97;99821.78;31462346;28;20048;-84
2023/08/29 20:07:43;;;;;;;14.27;7.13;;;;;;;30.25;54.25;99835.41;31462351;28;20057;-84
2023/08/29 20:22:46;;;;;;;12.68;7.50;;;;;;;29.99;55.56;99844.97;31419527;28;20044;-81
2023/08/29 20:37:48;;;;;;;15.98;6.68;;;;;;;29.98;55.93;99861.03;31411015;28;20148;-81
2023/08/29 20:52:50;;;;;;;;;;;;;;;29.68;57.35;99853.31;31381983;28;20056;-80
2023/08/29 21:07:52;;;;;;;16.77;9.07;;;;;;;29.34;56.99;99856.38;31413082;28;19931;-83
2023/08/29 21:22:55;;;;;;;22.80;10.40;;;;;;;28.89;57.36;99856.22;31396159;28;20429;-82
2023/08/29 21:37:57;;;;;;;;;;;;;;;28.61;57.49;99874.47;31334381;28;20052;-79
2023/08/29 21:52:59;;;;;;;22.42;13.27;;;;;;;28.39;57.15;99897.41;31326050;28;19929;-79
2023/08/29 22:08:01;;;;;;;12.33;8.07;;;;;;;28.19;56.25;99891.28;31323206;28;20051;-79
2023/08/29 22:23:03;;;;;;;15.43;7.63;;;;;;;27.95;55.32;99888.81;31322066;28;20061;-80
2023/08/29 22:38:06;;;;;;;18.27;7.83;;;;;;;27.90;54.31;99886.91;31319413;28;20300;-79
2023/08/29 22:53:08;;;;;;;11.70;6.32;;;;;;;27.73;54.44;99883.78;31324159;28;20049;-79
2023/08/29 23:08:12;;;;;;;12.43;6.97;;;;;;;27.52;54.95;99881.69;31313989;28;20498;-79
2023/08/29 23:23:14;;;;;;;24.25;8.90;;;;;;;27.24;55.50;99889.91;31307046;28;20076;-80
2023/08/29 23:38:16;;;;;;;16.27;9.93;;;;;;;27.00;56.10;99890.16;31317420;28;20084;-80
2023/08/29 23:53:18;;;;;;;12.87;8.30;;;;;;;26.98;56.07;99901.09;31343100;28;20082;-80
